createdAt,value
2022-08-22T00:01:06.116Z,983.4
2022-08-22T00:02:51.716Z,983.3
2022-08-22T00:03:17.082Z,983.5
2022-08-22T00:05:07.593Z,983.4
2022-08-22T00:07:08.981Z,983.4
2022-08-22T00:09:10.312Z,983.4
2022-08-22T00:11:11.463Z,983.4
2022-08-22T00:13:13.027Z,983.4
2022-08-22T00:15:31.644Z,983.5
2022-08-22T00:17:15.230Z,983.5
2022-08-22T00:19:16.890Z,983.4
2022-08-22T00:21:18.269Z,983.4
2022-08-22T00:23:19.660Z,983.4
2022-08-22T00:25:24.811Z,983.5
2022-08-22T00:27:22.718Z,983.5
2022-08-22T00:29:24.416Z,983.5
2022-08-22T00:31:25.532Z,983.5
2022-08-22T00:33:27.020Z,983.5
2022-08-22T00:35:28.708Z,983.5
2022-08-22T00:37:29.965Z,983.5
2022-08-22T00:39:31.277Z,983.4
2022-08-22T00:43:33.589Z,983.5
2022-08-22T00:45:34.628Z,983.5
2022-08-22T00:47:35.828Z,983.5
2022-08-22T00:49:37.443Z,983.5
2022-08-22T00:53:40.573Z,983.5
2022-08-22T00:55:42.232Z,983.5
2022-08-22T00:57:43.607Z,983.5
2022-08-22T00:59:45.404Z,983.6
2022-08-22T01:01:47.010Z,983.6
2022-08-22T01:03:48.448Z,983.6
2022-08-22T01:05:50.213Z,983.6
2022-08-22T01:07:51.280Z,983.6
2022-08-22T01:09:53.103Z,983.6
2022-08-22T01:11:54.705Z,983.6
2022-08-22T01:13:56.258Z,983.6
2022-08-22T01:15:57.503Z,983.6
2022-08-22T01:17:59.212Z,983.6
2022-08-22T01:20:00.925Z,983.6
2022-08-22T01:22:02.705Z,983.6
2022-08-22T01:24:04.092Z,983.7
2022-08-22T01:26:05.481Z,983.6
2022-08-22T01:28:06.895Z,983.6
2022-08-22T01:30:08.793Z,983.6
2022-08-22T01:32:10.087Z,983.6
2022-08-22T01:34:12.949Z,983.6
2022-08-22T01:36:13.454Z,983.6
2022-08-22T01:38:14.925Z,983.6
2022-08-22T01:42:17.405Z,983.6
2022-08-22T01:44:19.333Z,983.6
2022-08-22T01:46:20.762Z,983.6
2022-08-22T01:48:22.453Z,983.6
2022-08-22T01:50:23.497Z,983.6
2022-08-22T01:52:25.203Z,983.7
2022-08-22T01:54:27.119Z,983.6
2022-08-22T01:56:28.486Z,983.6
2022-08-22T01:58:30.160Z,983.6
2022-08-22T02:00:34.583Z,983.6
2022-08-22T02:02:33.051Z,983.7
2022-08-22T02:04:34.438Z,983.7
2022-08-22T02:06:35.392Z,983.6
2022-08-22T02:08:36.571Z,983.7
2022-08-22T02:10:37.626Z,983.7
2022-08-22T02:12:39.260Z,983.6
2022-08-22T02:14:41.086Z,983.7
2022-08-22T02:16:42.640Z,983.7
2022-08-22T02:18:43.839Z,983.7
2022-08-22T02:20:45.487Z,983.6
2022-08-22T02:22:47.040Z,983.6
2022-08-22T02:24:48.745Z,983.6
2022-08-22T02:26:50.267Z,983.5
2022-08-22T02:28:56.807Z,983.6
2022-08-22T02:30:53.264Z,983.6
2022-08-22T02:32:54.820Z,983.7
2022-08-22T02:34:56.201Z,983.7
2022-08-22T02:36:58.249Z,983.6
2022-08-22T02:38:59.093Z,983.7
2022-08-22T02:41:00.376Z,983.6
2022-08-22T02:43:01.839Z,983.8
2022-08-22T02:45:03.363Z,983.6
2022-08-22T02:47:04.622Z,983.6
2022-08-22T02:49:06.222Z,983.7
2022-08-22T02:51:08.070Z,983.6
2022-08-22T02:53:09.091Z,983.5
2022-08-22T02:55:10.523Z,983.6
2022-08-22T02:57:14.095Z,983.6
2022-08-22T02:59:13.561Z,983.6
2022-08-22T03:01:15.101Z,983.5
2022-08-22T03:03:16.682Z,983.5
2022-08-22T03:05:17.666Z,983.6
2022-08-22T03:07:19.037Z,983.5
2022-08-22T03:09:20.965Z,983.6
2022-08-22T03:11:22.896Z,983.5
2022-08-22T03:13:24.071Z,983.6
2022-08-22T03:15:25.079Z,983.6
2022-08-22T03:17:26.156Z,983.6
2022-08-22T03:19:27.167Z,983.5
2022-08-22T03:21:28.446Z,983.6
2022-08-22T03:23:29.656Z,983.6
2022-08-22T03:25:31.359Z,983.7
2022-08-22T03:27:33.437Z,983.6
2022-08-22T03:29:34.704Z,983.7
2022-08-22T03:31:36.341Z,983.6
2022-08-22T03:33:38.020Z,983.7
2022-08-22T03:35:39.351Z,983.6
2022-08-22T03:37:41.191Z,983.6
2022-08-22T03:39:42.839Z,983.6
2022-08-22T03:40:27.823Z,983.6
2022-08-22T03:44:30.215Z,983.6
2022-08-22T03:46:31.818Z,983.6
2022-08-22T03:48:33.213Z,983.6
2022-08-22T03:50:34.537Z,983.6
2022-08-22T03:54:37.582Z,983.6
2022-08-22T03:56:39.221Z,983.6
2022-08-22T03:58:41.167Z,983.8
2022-08-22T04:00:43.068Z,983.7
2022-08-22T04:02:44.960Z,983.8
2022-08-22T04:04:46.560Z,983.8
2022-08-22T04:06:48.431Z,983.7
2022-08-22T04:08:49.801Z,983.8
2022-08-22T04:10:51.135Z,983.8
2022-08-22T04:12:52.745Z,983.8
2022-08-22T04:14:54.132Z,983.9
2022-08-22T04:16:55.401Z,983.9
2022-08-22T04:18:57.079Z,983.9
2022-08-22T04:20:58.391Z,984
2022-08-22T04:22:59.991Z,983.9
2022-08-22T04:27:02.907Z,983.9
2022-08-22T04:29:04.675Z,983.9
2022-08-22T04:31:05.691Z,983.9
2022-08-22T04:33:07.504Z,983.9
2022-08-22T04:37:10.298Z,984
2022-08-22T04:39:11.975Z,984
2022-08-22T04:41:13.751Z,984
2022-08-22T04:43:15.119Z,984
2022-08-22T04:45:16.813Z,984
2022-08-22T04:47:18.535Z,984.1
2022-08-22T04:49:20.287Z,984
2022-08-22T04:51:21.707Z,984.1
2022-08-22T04:53:23.194Z,984.1
2022-08-22T04:55:25.072Z,984.1
2022-08-22T04:57:26.214Z,984.2
2022-08-22T04:59:27.366Z,984.1
2022-08-22T05:01:29.159Z,984.1
2022-08-22T05:03:30.889Z,984.1
2022-08-22T05:05:32.341Z,984.1
2022-08-22T05:09:35.431Z,984.2
2022-08-22T05:11:36.989Z,984.2
2022-08-22T05:13:38.062Z,984.2
2022-08-22T05:15:39.300Z,984.2
2022-08-22T05:19:42.003Z,984.2
2022-08-22T05:21:43.500Z,984.2
2022-08-22T05:25:46.445Z,984.2
2022-08-22T05:27:48.058Z,984.2
2022-08-22T05:29:49.445Z,984.2
2022-08-22T05:31:50.652Z,984.2
2022-08-22T05:33:52.317Z,984.2
2022-08-22T05:35:57.288Z,984.1
2022-08-22T05:37:54.706Z,984.1
2022-08-22T05:39:56.493Z,984.2
2022-08-22T05:41:57.839Z,984.2
2022-08-22T05:43:58.900Z,984.2
2022-08-22T05:46:00.000Z,984.2
2022-08-22T05:48:01.461Z,984.2
2022-08-22T05:50:03.315Z,984.3
2022-08-22T05:52:04.974Z,984.3
2022-08-22T05:54:06.669Z,984.3
2022-08-22T05:56:08.006Z,984.2
2022-08-22T05:58:09.110Z,984.3
2022-08-22T06:00:10.989Z,984.4
2022-08-22T06:02:12.438Z,984.3
2022-08-22T06:04:14.254Z,984.3
2022-08-22T06:08:17.383Z,984.2
2022-08-22T06:10:19.078Z,984.3
2022-08-22T06:12:22.031Z,984.3
2022-08-22T06:14:24.734Z,984.3
2022-08-22T06:16:22.941Z,984.2
2022-08-22T06:18:23.925Z,984.2
2022-08-22T06:20:25.263Z,984.2
2022-08-22T06:24:28.102Z,984.2
2022-08-22T06:26:29.535Z,984.2
2022-08-22T06:28:30.707Z,984.2
2022-08-22T06:30:32.395Z,984.2
2022-08-22T06:32:58.173Z,984.2
2022-08-22T06:34:35.172Z,984.3
2022-08-22T06:36:36.314Z,984.3
2022-08-22T06:38:37.383Z,984.2
2022-08-22T06:40:38.523Z,984.3
2022-08-22T06:42:39.910Z,984.3
2022-08-22T06:44:41.003Z,984.2
2022-08-22T06:46:42.419Z,984.2
2022-08-22T06:48:43.752Z,984.2
2022-08-22T06:50:44.963Z,984.2
2022-08-22T06:52:46.437Z,984.3
2022-08-22T06:54:47.844Z,984.1
2022-08-22T06:56:48.992Z,984.2
2022-08-22T06:58:50.090Z,984.2
2022-08-22T07:00:51.605Z,984.2
2022-08-22T07:02:52.515Z,984.2
2022-08-22T07:04:54.113Z,984.2
2022-08-22T07:06:55.199Z,984.2
2022-08-22T07:08:56.480Z,984.3
2022-08-22T07:10:57.878Z,984.2
2022-08-22T07:12:59.505Z,984.2
2022-08-22T07:15:00.513Z,984.2
2022-08-22T07:17:01.400Z,984.2
2022-08-22T07:21:04.021Z,984.3
2022-08-22T07:23:05.274Z,984.3
2022-08-22T07:25:06.286Z,984.4
2022-08-22T07:27:07.921Z,984.3
2022-08-22T07:29:11.324Z,984.3
2022-08-22T07:31:10.590Z,984.3
2022-08-22T07:33:19.044Z,984.4
2022-08-22T07:35:14.074Z,984.3
2022-08-22T07:37:14.883Z,984.3
2022-08-22T07:41:18.119Z,984.2
2022-08-22T07:43:19.699Z,984.3
2022-08-22T07:45:21.203Z,984.4
2022-08-22T07:47:26.210Z,984.3
2022-08-22T07:49:23.749Z,984.4
2022-08-22T07:51:24.635Z,984.2
2022-08-22T07:53:26.265Z,984.3
2022-08-22T07:55:27.126Z,984.2
2022-08-22T07:57:28.235Z,984.2
2022-08-22T07:59:29.645Z,984.3
2022-08-22T08:01:31.312Z,984.3
2022-08-22T08:03:32.983Z,984.2
2022-08-22T08:05:33.990Z,984.3
2022-08-22T08:07:35.053Z,984.4
2022-08-22T08:09:37.153Z,984.4
2022-08-22T08:11:38.538Z,984.3
2022-08-22T08:13:40.099Z,984.3
2022-08-22T08:15:41.794Z,984.4
2022-08-22T08:17:43.207Z,984.3
2022-08-22T08:19:44.604Z,984.3
2022-08-22T08:21:45.585Z,984.3
2022-08-22T08:23:46.591Z,984.3
2022-08-22T08:25:47.995Z,984.3
2022-08-22T08:27:50.379Z,984.3
2022-08-22T08:29:49.943Z,984.3
2022-08-22T08:31:50.935Z,984.3
2022-08-22T08:33:52.357Z,984.3
2022-08-22T08:35:57.555Z,984.3
2022-08-22T08:37:54.450Z,984.3
2022-08-22T08:39:55.877Z,984.3
2022-08-22T08:41:57.242Z,984.3
2022-08-22T08:43:58.481Z,984.2
2022-08-22T08:46:00.152Z,984.3
2022-08-22T08:48:01.314Z,984.2
2022-08-22T08:50:01.987Z,984.3
2022-08-22T08:52:03.445Z,984.2
2022-08-22T08:54:05.008Z,984.3
2022-08-22T08:56:05.912Z,984.3
2022-08-22T08:58:07.497Z,984.2
2022-08-22T09:00:08.412Z,984.3
2022-08-22T09:04:15.115Z,984.2
2022-08-22T09:06:11.525Z,984.2
2022-08-22T09:08:12.953Z,984.3
2022-08-22T09:10:14.405Z,984.1
2022-08-22T09:14:17.791Z,984.2
2022-08-22T09:16:19.109Z,984.2
2022-08-22T09:18:20.378Z,984.2
2022-08-22T09:20:21.369Z,984.2
2022-08-22T09:22:23.044Z,984.3
2022-08-22T09:24:24.824Z,984.2
2022-08-22T09:26:25.687Z,984.2
2022-08-22T09:28:28.283Z,984.2
2022-08-22T09:32:29.145Z,984.2
2022-08-22T09:34:30.658Z,984.2
2022-08-22T09:36:32.258Z,984.2
2022-08-22T09:38:33.607Z,984.2
2022-08-22T09:40:34.528Z,984.1
2022-08-22T09:44:39.394Z,984.2
2022-08-22T09:46:38.775Z,984.2
2022-08-22T09:48:40.203Z,984.2
2022-08-22T09:50:41.409Z,984.2
2022-08-22T09:52:42.644Z,984.2
2022-08-22T09:54:44.372Z,984.2
2022-08-22T09:56:45.394Z,984.2
2022-08-22T09:58:46.423Z,984.1
2022-08-22T10:00:47.369Z,984.1
2022-08-22T10:02:49.671Z,984.1
2022-08-22T10:04:49.952Z,984.1
2022-08-22T10:06:51.635Z,984.1
2022-08-22T10:08:52.640Z,984.2
2022-08-22T10:10:53.738Z,984.1
2022-08-22T10:12:55.107Z,984.2
2022-08-22T10:14:56.410Z,984.2
2022-08-22T10:16:57.461Z,984.1
2022-08-22T10:19:00.744Z,984.2
2022-08-22T10:21:00.289Z,984.2
2022-08-22T10:23:01.845Z,984.2
2022-08-22T10:25:03.110Z,984.2
2022-08-22T10:25:55.817Z,984.1
2022-08-22T10:27:57.004Z,984.2
2022-08-22T10:29:58.152Z,984.1
2022-08-22T10:31:59.812Z,984
2022-08-22T10:34:00.690Z,984
2022-08-22T10:36:04.887Z,984
2022-08-22T10:40:05.215Z,983.8
2022-08-22T10:42:06.194Z,983.9
2022-08-22T10:44:07.279Z,983.9
2022-08-22T10:46:12.442Z,983.9
2022-08-22T10:48:10.034Z,983.9
2022-08-22T10:50:11.582Z,984
2022-08-22T10:52:15.465Z,983.9
2022-08-22T10:54:13.948Z,983.9
2022-08-22T10:56:15.092Z,983.9
2022-08-22T10:58:16.452Z,983.8
2022-08-22T11:00:22.467Z,983.8
2022-08-22T11:02:19.247Z,983.7
2022-08-22T11:04:20.419Z,983.7
2022-08-22T11:06:22.166Z,983.6
2022-08-22T11:08:23.946Z,983.6
2022-08-22T11:10:25.449Z,983.6
2022-08-22T11:12:34.504Z,983.6
2022-08-22T11:14:28.197Z,983.5
2022-08-22T11:16:29.706Z,983.6
2022-08-22T11:18:31.200Z,983.6
2022-08-22T11:20:32.615Z,983.6
2022-08-22T11:22:34.200Z,983.6
2022-08-22T11:24:46.657Z,983.6
2022-08-22T11:26:46.905Z,983.5
2022-08-22T11:28:38.681Z,983.6
2022-08-22T11:30:44.188Z,983.6
2022-08-22T11:32:40.660Z,983.6
2022-08-22T11:34:42.089Z,983.6
2022-08-22T11:38:45.110Z,983.5
2022-08-22T11:40:46.076Z,983.5
2022-08-22T11:42:47.334Z,983.4
2022-08-22T11:44:50.101Z,983.5
2022-08-22T11:46:49.488Z,983.5
2022-08-22T11:48:51.184Z,983.5
2022-08-22T11:50:52.210Z,983.5
2022-08-22T11:52:53.391Z,983.4
2022-08-22T11:54:54.775Z,983.5
2022-08-22T11:56:55.571Z,983.5
2022-08-22T11:58:56.704Z,983.4
2022-08-22T12:00:57.980Z,983.4
2022-08-22T12:02:58.930Z,983.4
2022-08-22T12:04:59.992Z,983.2
2022-08-22T12:07:01.419Z,983.3
2022-08-22T12:09:02.706Z,983.2
2022-08-22T12:11:04.170Z,983.3
2022-08-22T12:13:05.871Z,983.2
2022-08-22T12:15:09.053Z,983.3
2022-08-22T12:17:07.895Z,983.3
2022-08-22T12:21:10.899Z,983.3
2022-08-22T12:25:22.561Z,983.2
2022-08-22T12:27:14.412Z,983.3
2022-08-22T12:29:16.715Z,983.3
2022-08-22T12:31:16.888Z,983.2
2022-08-22T12:33:20.897Z,983.2
2022-08-22T12:35:19.058Z,983.3
2022-08-22T12:37:20.623Z,983.1
2022-08-22T12:39:21.753Z,983.1
2022-08-22T12:41:27.970Z,983.1
2022-08-22T12:43:23.860Z,983
2022-08-22T12:45:24.753Z,983.1
2022-08-22T12:47:25.761Z,983.1
2022-08-22T12:49:27.254Z,983
2022-08-22T12:51:29.436Z,983
2022-08-22T12:53:30.082Z,983
2022-08-22T12:55:31.235Z,982.9
2022-08-22T12:57:32.086Z,982.9
2022-08-22T12:59:33.543Z,982.9
2022-08-22T13:01:35.263Z,983
2022-08-22T13:03:36.713Z,983
2022-08-22T13:05:40.474Z,983
2022-08-22T13:07:39.328Z,983
2022-08-22T13:09:40.163Z,983
2022-08-22T13:11:41.177Z,982.9
2022-08-22T13:13:42.635Z,982.9
2022-08-22T13:17:45.613Z,982.9
2022-08-22T13:19:47.027Z,982.9
2022-08-22T13:21:48.501Z,982.9
2022-08-22T13:23:50.768Z,982.9
2022-08-22T13:25:50.891Z,982.8
2022-08-22T13:27:52.074Z,982.9
2022-08-22T13:29:53.547Z,982.9
2022-08-22T13:31:55.339Z,982.9
2022-08-22T13:33:56.056Z,983
2022-08-22T13:35:57.075Z,982.8
2022-08-22T13:37:58.452Z,982.9
2022-08-22T13:39:59.508Z,982.9
2022-08-22T13:42:00.247Z,982.9
2022-08-22T13:44:01.220Z,982.9
2022-08-22T13:46:02.372Z,982.8
2022-08-22T13:48:04.119Z,982.8
2022-08-22T13:50:04.774Z,982.9
2022-08-22T13:52:06.037Z,982.8
2022-08-22T13:54:10.753Z,982.8
2022-08-22T13:56:15.394Z,982.9
2022-08-22T13:58:11.315Z,982.8
2022-08-22T14:02:15.298Z,982.8
2022-08-22T14:04:17.846Z,982.8
2022-08-22T14:06:32.937Z,982.8
2022-08-22T14:08:16.227Z,982.7
2022-08-22T14:10:17.369Z,982.7
2022-08-22T14:12:18.411Z,982.7
2022-08-22T14:14:19.546Z,982.8
2022-08-22T14:18:21.949Z,982.8
2022-08-22T14:20:28.479Z,982.8
2022-08-22T14:22:32.201Z,982.8
2022-08-22T14:24:27.150Z,982.8
2022-08-22T14:26:26.972Z,982.7
2022-08-22T14:28:27.782Z,982.8
2022-08-22T14:30:28.936Z,982.8
2022-08-22T14:32:32.663Z,982.8
2022-08-22T14:34:31.489Z,982.8
2022-08-22T14:36:32.545Z,982.8
2022-08-22T14:38:34.225Z,982.8
2022-08-22T14:40:35.344Z,982.7
2022-08-22T14:42:36.767Z,982.7
2022-08-22T14:44:38.225Z,982.7
2022-08-22T14:46:39.524Z,982.6
2022-08-22T14:48:41.531Z,982.7
2022-08-22T14:50:42.748Z,982.6
2022-08-22T14:52:44.161Z,982.6
2022-08-22T14:54:45.391Z,982.6
2022-08-22T14:56:46.562Z,982.6
2022-08-22T14:58:47.562Z,982.5
2022-08-22T15:00:50.032Z,982.5
2022-08-22T15:02:49.737Z,982.5
2022-08-22T15:04:51.305Z,982.6
2022-08-22T15:06:52.957Z,982.4
2022-08-22T15:08:54.278Z,982.5
2022-08-22T15:10:55.703Z,982.3
2022-08-22T15:12:57.440Z,982.5
2022-08-22T15:14:58.718Z,982.4
2022-08-22T15:17:00.285Z,982.4
2022-08-22T15:19:01.560Z,982.4
2022-08-22T15:21:02.559Z,982.4
2022-08-22T15:23:03.615Z,982.5
2022-08-22T15:27:06.707Z,982.3
2022-08-22T15:29:07.598Z,982.4
2022-08-22T15:31:09.264Z,982.4
2022-08-22T15:33:10.775Z,982.4
2022-08-22T15:35:12.354Z,982.3
2022-08-22T15:37:16.129Z,982.4
2022-08-22T15:39:15.728Z,982.3
2022-08-22T15:41:16.964Z,982.4
2022-08-22T15:43:18.278Z,982.3
2022-08-22T15:45:19.902Z,982.3
2022-08-22T15:47:23.904Z,982.3
2022-08-22T15:49:22.800Z,982.3
2022-08-22T15:51:23.844Z,982.3
2022-08-22T15:53:25.387Z,982.3
2022-08-22T15:55:26.221Z,982.3
2022-08-22T15:57:27.382Z,982.4
2022-08-22T15:59:28.768Z,982.3
2022-08-22T16:01:29.896Z,982.3
2022-08-22T16:03:30.744Z,982.4
2022-08-22T16:05:32.443Z,982.2
2022-08-22T16:07:33.259Z,982.3
2022-08-22T16:09:34.643Z,982.3
2022-08-22T16:11:36.243Z,982.3
2022-08-22T16:13:38.033Z,982.2
2022-08-22T16:15:39.251Z,982.3
2022-08-22T16:17:40.458Z,982.3
2022-08-22T16:19:41.664Z,982.2
2022-08-22T16:21:43.133Z,982.2
2022-08-22T16:23:44.498Z,982.2
2022-08-22T16:25:45.608Z,982.2
2022-08-22T16:27:46.610Z,982.3
2022-08-22T16:29:47.893Z,982.2
2022-08-22T16:31:48.817Z,982.2
2022-08-22T16:33:50.240Z,982.2
2022-08-22T16:35:51.508Z,982.2
2022-08-22T16:37:52.738Z,982.2
2022-08-22T16:41:55.794Z,982.2
2022-08-22T16:43:57.345Z,982.2
2022-08-22T16:45:58.982Z,982.2
2022-08-22T16:47:59.806Z,982.2
2022-08-22T16:50:00.696Z,982.2
2022-08-22T16:52:01.885Z,982.2
2022-08-22T16:54:03.290Z,982.2
2022-08-22T16:56:04.456Z,982.3
2022-08-22T16:58:06.583Z,982.2
2022-08-22T17:00:06.307Z,982.2
2022-08-22T17:02:07.202Z,982.2
2022-08-22T17:04:08.711Z,982.2
2022-08-22T17:08:10.884Z,982.3
2022-08-22T17:10:12.318Z,982.2
2022-08-22T17:12:56.398Z,982.3
2022-08-22T17:14:57.803Z,982.3
2022-08-22T17:19:00.125Z,982.3
2022-08-22T17:21:01.415Z,982.3
2022-08-22T17:23:03.008Z,982.3
2022-08-22T17:25:04.121Z,982.3
2022-08-22T17:27:05.586Z,982.3
2022-08-22T17:29:06.888Z,982.3
2022-08-22T17:31:08.348Z,982.3
2022-08-22T17:33:09.884Z,982.4
2022-08-22T17:35:10.941Z,982.3
2022-08-22T17:37:12.539Z,982.3
2022-08-22T17:39:14.064Z,982.4
2022-08-22T17:41:15.018Z,982.5
2022-08-22T17:43:16.207Z,982.4
2022-08-22T17:45:17.359Z,982.4
2022-08-22T17:47:18.928Z,982.4
2022-08-22T17:49:20.139Z,982.5
2022-08-22T17:51:23.381Z,982.5
2022-08-22T17:53:22.511Z,982.5
2022-08-22T17:55:23.778Z,982.5
2022-08-22T17:57:25.244Z,982.6
2022-08-22T17:59:27.030Z,982.5
2022-08-22T18:01:27.941Z,982.6
2022-08-22T18:03:29.297Z,982.6
2022-08-22T18:05:30.823Z,982.5
2022-08-22T18:07:32.121Z,982.6
2022-08-22T18:09:33.424Z,982.6
2022-08-22T18:11:38.912Z,982.6
2022-08-22T18:13:37.021Z,982.6
2022-08-22T18:17:40.676Z,982.6
2022-08-22T18:19:41.675Z,982.7
2022-08-22T18:21:42.780Z,982.7
2022-08-22T18:23:44.556Z,982.7
2022-08-22T18:25:46.356Z,982.6
2022-08-22T18:27:47.347Z,982.8
2022-08-22T18:29:49.083Z,982.8
2022-08-22T18:31:50.391Z,982.7
2022-08-22T18:33:51.350Z,982.8
2022-08-22T18:35:53.920Z,982.9
2022-08-22T18:37:53.287Z,982.8
2022-08-22T18:39:54.490Z,982.9
2022-08-22T18:41:56.299Z,982.9
2022-08-22T18:43:57.792Z,982.9
2022-08-22T18:46:02.938Z,982.9
2022-08-22T18:47:59.705Z,982.9
2022-08-22T18:50:01.126Z,983
2022-08-22T18:52:02.493Z,982.9
2022-08-22T18:54:03.912Z,983
2022-08-22T18:56:05.692Z,982.9
2022-08-22T18:58:07.399Z,983
2022-08-22T19:00:08.768Z,983
2022-08-22T19:02:10.193Z,983
2022-08-22T19:04:11.755Z,983.1
2022-08-22T19:06:12.717Z,983
2022-08-22T19:08:14.294Z,983.1
2022-08-22T19:10:15.302Z,983
2022-08-22T19:12:16.591Z,983.1
2022-08-22T19:14:17.694Z,983.1
2022-08-22T19:16:18.767Z,983
2022-08-22T19:18:20.611Z,983.2
2022-08-22T19:20:22.167Z,983.1
2022-08-22T19:22:23.525Z,983.2
2022-08-22T19:24:24.870Z,983.2
2022-08-22T19:26:26.255Z,983.2
2022-08-22T19:28:27.608Z,983.2
2022-08-22T19:30:28.825Z,983.3
2022-08-22T19:32:30.258Z,983.3
2022-08-22T19:36:32.325Z,983.3
2022-08-22T19:38:33.288Z,983.3
2022-08-22T19:42:36.090Z,983.4
2022-08-22T19:44:37.219Z,983.4
2022-08-22T19:46:38.747Z,983.3
2022-08-22T19:48:39.906Z,983.3
2022-08-22T19:50:41.651Z,983.3
2022-08-22T19:52:42.927Z,983.3
2022-08-22T19:54:44.136Z,983.3
2022-08-22T19:56:45.049Z,983.4
2022-08-22T19:58:46.080Z,983.4
2022-08-22T20:00:51.567Z,983.4
2022-08-22T20:02:49.062Z,983.3
2022-08-22T20:04:49.976Z,983.5
2022-08-22T20:06:51.058Z,983.5
2022-08-22T20:08:52.172Z,983.4
2022-08-22T20:10:53.173Z,983.4
2022-08-22T20:12:54.771Z,983.4
2022-08-22T20:14:56.029Z,983.3
2022-08-22T20:16:57.718Z,983.5
2022-08-22T20:19:05.415Z,983.5
2022-08-22T20:21:00.623Z,983.5
2022-08-22T20:23:02.067Z,983.3
2022-08-22T20:25:03.015Z,983.4
2022-08-22T20:27:13.734Z,983.4
2022-08-22T20:29:07.234Z,983.3
2022-08-22T20:31:08.152Z,983.5
2022-08-22T20:33:09.591Z,983.4
2022-08-22T20:35:11.151Z,983.5
2022-08-22T20:39:13.315Z,983.5
2022-08-22T20:41:17.383Z,983.5
2022-08-22T20:43:15.298Z,983.6
2022-08-22T20:45:16.887Z,983.5
2022-08-22T20:47:19.384Z,983.6
2022-08-22T20:49:18.986Z,983.6
2022-08-22T20:51:20.711Z,983.6
2022-08-22T20:53:22.363Z,983.5
2022-08-22T20:55:23.466Z,983.5
2022-08-22T20:57:24.513Z,983.5
2022-08-22T20:59:25.860Z,983.5
2022-08-22T21:01:27.497Z,983.6
2022-08-22T21:03:28.581Z,983.7
2022-08-22T21:07:31.740Z,983.6
2022-08-22T21:09:33.430Z,983.5
2022-08-22T21:11:34.256Z,983.6
2022-08-22T21:13:35.408Z,983.6
2022-08-22T21:17:39.153Z,983.6
2022-08-22T21:19:39.739Z,983.7
2022-08-22T21:21:40.698Z,983.6
2022-08-22T21:23:41.716Z,983.7
2022-08-22T21:25:42.884Z,983.7
2022-08-22T21:27:43.895Z,983.7
2022-08-22T21:29:45.882Z,983.7
2022-08-22T21:31:46.504Z,983.7
2022-08-22T21:33:48.150Z,983.7
2022-08-22T21:35:49.692Z,983.7
2022-08-22T21:37:50.783Z,983.8
2022-08-22T21:39:52.053Z,983.7
2022-08-22T21:41:52.991Z,983.7
2022-08-22T21:43:54.823Z,983.7
2022-08-22T21:45:56.328Z,983.7
2022-08-22T21:47:58.220Z,983.7
2022-08-22T21:49:59.099Z,983.7
2022-08-22T21:52:00.082Z,983.6
2022-08-22T21:54:16.052Z,983.7
2022-08-22T21:56:02.881Z,983.7
2022-08-22T21:58:04.637Z,983.7
2022-08-22T22:00:06.091Z,983.7
2022-08-22T22:02:07.445Z,983.7
2022-08-22T22:04:08.622Z,983.8
2022-08-22T22:06:10.042Z,983.8
2022-08-22T22:08:11.303Z,983.8
2022-08-22T22:10:12.558Z,983.8
2022-08-22T22:12:13.495Z,983.8
2022-08-22T22:14:15.359Z,983.8
2022-08-22T22:16:16.400Z,983.8
2022-08-22T22:18:17.420Z,983.9
2022-08-22T22:22:20.861Z,983.9
2022-08-22T22:24:22.072Z,983.9
2022-08-22T22:26:23.396Z,983.8
2022-08-22T22:28:24.736Z,983.9
2022-08-22T22:30:25.870Z,983.9
2022-08-22T22:32:27.658Z,983.9
2022-08-22T22:34:28.650Z,984
2022-08-22T22:36:29.700Z,984
2022-08-22T22:38:31.413Z,984
2022-08-22T22:40:32.901Z,984
2022-08-22T22:42:34.502Z,984
2022-08-22T22:44:35.473Z,984.1
2022-08-22T22:46:37.341Z,984.1
2022-08-22T22:48:38.500Z,984.1
2022-08-22T22:50:39.780Z,984.2
2022-08-22T22:52:41.133Z,984.1
2022-08-22T22:54:42.103Z,984.1
2022-08-22T22:56:43.833Z,984.1
2022-08-22T22:58:44.825Z,984.2
2022-08-22T23:00:46.467Z,984.1
2022-08-22T23:02:47.909Z,984.1
2022-08-22T23:04:49.435Z,984.2
2022-08-22T23:06:51.251Z,984.2
2022-08-22T23:08:52.412Z,984.3
2022-08-22T23:10:53.667Z,984.2
2022-08-22T23:12:54.641Z,984.2
2022-08-22T23:14:56.240Z,984.4
2022-08-22T23:16:57.702Z,984.3
2022-08-22T23:18:59.594Z,984.3
2022-08-22T23:21:01.184Z,984.3
2022-08-22T23:23:02.580Z,984.4
2022-08-22T23:25:04.354Z,984.4
2022-08-22T23:27:05.510Z,984.4
2022-08-22T23:31:08.035Z,984.5
2022-08-22T23:33:09.647Z,984.5
2022-08-22T23:35:10.804Z,984.5
2022-08-22T23:37:11.788Z,984.5
2022-08-22T23:41:14.909Z,984.5
2022-08-22T23:43:16.227Z,984.5
2022-08-22T23:47:19.118Z,984.5
2022-08-22T23:49:20.317Z,984.6
2022-08-22T23:51:22.259Z,984.4
2022-08-22T23:53:23.933Z,984.5
2022-08-22T23:58:10.786Z,984.5
